Burdett, Canada
Current Conditions -  °F | °C
As of 11:00 AM on Wednesday 26 Nov 2014 (Local Time) from CYXH Reporting Station
Overcast Overcast  
Wind Chill: 17°   Ceiling: 27000
Heat Index: 25°   Visibility: 10mi
Dew Point: 21°   Wind: 7mph
Humidity: 86%   Direction: 80°E
Pressure: 30.21"   Gusts: NA
Location:  49.82°N, 111.52°W
Report Text: CYXH 261800Z 08006KT 10SM SCT065 OVC270 M04/M06 A3021 RMK SC4CI4 SLP267
Loading
Personal Weather Stations






























Interactive Weather Map New forecast layout! Learn more

10-Day Weather Forecast

Advertisements
Track Severe Weather on mobile